sensor_id;sensor_type;location;lat;lon;timestamp;pressure;altitude;pressure_sealevel;temperature;humidity
73105;BME280;61296;50.526;30.792;2023-04-07T00:13:50;99445.88;;;5.32;87.33
73105;BME280;61296;50.526;30.792;2023-04-07T00:29:10;99369.44;;;4.67;88.67
73105;BME280;61296;50.526;30.792;2023-04-07T00:44:29;99286.69;;;3.98;87.31
73105;BME280;61296;50.526;30.792;2023-04-07T00:59:49;99404.59;;;4.48;87.91
73105;BME280;61296;50.526;30.792;2023-04-07T01:15:11;99377.88;;;4.17;86.51
73105;BME280;61296;50.526;30.792;2023-04-07T01:30:37;99435.66;;;4.34;87.35
73105;BME280;61296;50.526;30.792;2023-04-07T01:45:57;99328.19;;;3.41;83.04
73105;BME280;61296;50.526;30.792;2023-04-07T02:01:17;99398.84;;;3.62;80.46
73105;BME280;61296;50.526;30.792;2023-04-07T02:16:38;99447.69;;;4.00;78.98
73105;BME280;61296;50.526;30.792;2023-04-07T02:32:00;99531.59;;;4.52;80.22
73105;BME280;61296;50.526;30.792;2023-04-07T02:47:22;99452.06;;;3.93;79.96
73105;BME280;61296;50.526;30.792;2023-04-07T03:02:41;99534.47;;;4.35;80.90
73105;BME280;61296;50.526;30.792;2023-04-07T03:18:01;99397.88;;;3.46;81.14
73105;BME280;61296;50.526;30.792;2023-04-07T03:33:21;99527.91;;;3.94;82.99
73105;BME280;61296;50.526;30.792;2023-04-07T03:48:41;99433.00;;;3.51;84.90
73105;BME280;61296;50.526;30.792;2023-04-07T04:04:02;99465.34;;;3.23;84.46
73105;BME280;61296;50.526;30.792;2023-04-07T04:19:23;99501.38;;;3.41;84.67
73105;BME280;61296;50.526;30.792;2023-04-07T04:34:43;99504.47;;;3.31;83.15
73105;BME280;61296;50.526;30.792;2023-04-07T04:50:06;99506.53;;;3.34;83.29
73105;BME280;61296;50.526;30.792;2023-04-07T05:05:28;99497.44;;;3.30;82.84
73105;BME280;61296;50.526;30.792;2023-04-07T05:20:49;99603.22;;;4.32;80.28
73105;BME280;61296;50.526;30.792;2023-04-07T05:36:10;99599.47;;;4.57;77.93
73105;BME280;61296;50.526;30.792;2023-04-07T05:51:32;99587.81;;;4.90;75.39
73105;BME280;61296;50.526;30.792;2023-04-07T06:06:55;99725.41;;;5.83;74.52
73105;BME280;61296;50.526;30.792;2023-04-07T06:22:15;99699.84;;;6.24;71.06
73105;BME280;61296;50.526;30.792;2023-04-07T06:37:34;99661.28;;;6.38;68.89
73105;BME280;61296;50.526;30.792;2023-04-07T06:52:54;99695.75;;;6.95;68.28
73105;BME280;61296;50.526;30.792;2023-04-07T07:08:13;99671.94;;;6.95;65.99
73105;BME280;61296;50.526;30.792;2023-04-07T07:23:42;99746.53;;;7.64;65.15
73105;BME280;61296;50.526;30.792;2023-04-07T07:39:04;99735.97;;;7.94;64.25
73105;BME280;61296;50.526;30.792;2023-04-07T07:54:47;99767.44;;;8.48;63.35
73105;BME280;61296;50.526;30.792;2023-04-07T08:10:07;99796.41;;;8.64;63.44
73105;BME280;61296;50.526;30.792;2023-04-07T08:25:27;99686.03;;;8.17;61.24
73105;BME280;61296;50.526;30.792;2023-04-07T08:40:48;99821.31;;;9.26;59.95
73105;BME280;61296;50.526;30.792;2023-04-07T08:56:13;99819.81;;;9.48;61.36
73105;BME280;61296;50.526;30.792;2023-04-07T09:11:38;99728.25;;;8.98;61.05
73105;BME280;61296;50.526;30.792;2023-04-07T09:27:14;99672.91;;;8.96;59.98
73105;BME280;61296;50.526;30.792;2023-04-07T09:42:43;99686.38;;;9.01;60.94
73105;BME280;61296;50.526;30.792;2023-04-07T09:58:03;99683.91;;;8.96;61.57
73105;BME280;61296;50.526;30.792;2023-04-07T10:13:25;99744.59;;;9.72;61.22
73105;BME280;61296;50.526;30.792;2023-04-07T10:28:54;99832.34;;;10.26;60.73
73105;BME280;61296;50.526;30.792;2023-04-07T11:00:26;99686.75;;;9.61;59.14
73105;BME280;61296;50.526;30.792;2023-04-07T11:15:49;99754.59;;;10.26;58.51
73105;BME280;61296;50.526;30.792;2023-04-07T11:31:21;99824.16;;;11.32;56.56
73105;BME280;61296;50.526;30.792;2023-04-07T11:46:57;99834.88;;;11.67;55.07
73105;BME280;61296;50.526;30.792;2023-04-07T12:02:33;99679.88;;;10.73;52.30
73105;BME280;61296;50.526;30.792;2023-04-07T12:17:55;99751.94;;;11.12;52.13
73105;BME280;61296;50.526;30.792;2023-04-07T12:33:15;99737.59;;;11.30;52.25
73105;BME280;61296;50.526;30.792;2023-04-07T13:00:37;99695.13;;;11.27;51.96
73105;BME280;61296;50.526;30.792;2023-04-07T13:15:59;99665.66;;;10.97;52.71
73105;BME280;61296;50.526;30.792;2023-04-07T13:31:18;99710.84;;;11.64;52.84
73105;BME280;61296;50.526;30.792;2023-04-07T13:46:39;99752.69;;;11.39;55.50
73105;BME280;61296;50.526;30.792;2023-04-07T14:02:00;99677.06;;;10.99;55.56
73105;BME280;61296;50.526;30.792;2023-04-07T14:17:20;99840.00;;;12.02;56.65
73105;BME280;61296;50.526;30.792;2023-04-07T14:32:41;99838.44;;;12.01;56.93
73105;BME280;61296;50.526;30.792;2023-04-07T14:48:01;99733.00;;;11.37;55.97
73105;BME280;61296;50.526;30.792;2023-04-07T15:03:20;99846.72;;;11.71;57.58
73105;BME280;61296;50.526;30.792;2023-04-07T15:18:44;99843.28;;;11.48;55.52
73105;BME280;61296;50.526;30.792;2023-04-07T15:34:05;99688.75;;;10.33;53.14
73105;BME280;61296;50.526;30.792;2023-04-07T15:49:24;99762.25;;;10.89;54.04
73105;BME280;61296;50.526;30.792;2023-04-07T16:04:43;99835.56;;;11.31;55.92
73105;BME280;61296;50.526;30.792;2023-04-07T16:20:07;99756.66;;;10.55;57.99
73105;BME280;61296;50.526;30.792;2023-04-07T16:35:31;99694.19;;;9.83;62.42
73105;BME280;61296;50.526;30.792;2023-04-07T16:50:52;99747.53;;;10.05;64.22
73105;BME280;61296;50.526;30.792;2023-04-07T17:06:11;99830.53;;;10.34;65.96
73105;BME280;61296;50.526;30.792;2023-04-07T17:21:36;99944.72;;;10.51;67.90
73105;BME280;61296;50.526;30.792;2023-04-07T17:37:11;99886.16;;;9.89;69.41
73105;BME280;61296;50.526;30.792;2023-04-07T17:52:31;99827.91;;;9.21;70.96
73105;BME280;61296;50.526;30.792;2023-04-07T18:07:51;99797.72;;;8.86;72.07
73105;BME280;61296;50.526;30.792;2023-04-07T18:23:10;99947.53;;;9.77;72.86
73105;BME280;61296;50.526;30.792;2023-04-07T18:38:42;99919.19;;;9.53;73.76
73105;BME280;61296;50.526;30.792;2023-04-07T18:54:01;99895.81;;;9.44;75.24
73105;BME280;61296;50.526;30.792;2023-04-07T19:09:21;99936.97;;;9.60;77.13
73105;BME280;61296;50.526;30.792;2023-04-07T19:24:40;99960.00;;;9.55;78.39
73105;BME280;61296;50.526;30.792;2023-04-07T19:40:00;99975.84;;;9.62;79.08
73105;BME280;61296;50.526;30.792;2023-04-07T19:55:19;99879.66;;;8.88;80.57
73105;BME280;61296;50.526;30.792;2023-04-07T20:10:40;99924.41;;;9.08;81.33
73105;BME280;61296;50.526;30.792;2023-04-07T20:25:59;99985.50;;;9.55;80.72
73105;BME280;61296;50.526;30.792;2023-04-07T20:41:20;99867.78;;;8.84;80.65
73105;BME280;61296;50.526;30.792;2023-04-07T20:56:40;99929.97;;;9.11;80.89
73105;BME280;61296;50.526;30.792;2023-04-07T21:12:01;99907.50;;;8.90;81.74
73105;BME280;61296;50.526;30.792;2023-04-07T21:27:21;99804.19;;;8.15;82.45
73105;BME280;61296;50.526;30.792;2023-04-07T21:42:41;99825.91;;;7.92;85.06
73105;BME280;61296;50.526;30.792;2023-04-07T21:58:02;99856.47;;;8.38;85.26
73105;BME280;61296;50.526;30.792;2023-04-07T22:13:30;99910.09;;;8.67;87.05
73105;BME280;61296;50.526;30.792;2023-04-07T22:28:49;99815.03;;;7.96;89.57
73105;BME280;61296;50.526;30.792;2023-04-07T22:44:24;99775.44;;;7.49;92.31
73105;BME280;61296;50.526;30.792;2023-04-07T22:59:47;99819.06;;;7.58;95.11
73105;BME280;61296;50.526;30.792;2023-04-07T23:15:12;99814.84;;;7.33;97.94
73105;BME280;61296;50.526;30.792;2023-04-07T23:30:32;99901.22;;;7.86;99.45
73105;BME280;61296;50.526;30.792;2023-04-07T23:45:51;99835.50;;;7.30;100.00
